Time;durP1;ratioP1;P1;durP2;ratioP2;P2;SDS_P1;SDS_P2;PMS_P1;PMS_P2;Temp;Humidity;BMP_temperature;BMP_pressure;BME280_temperature;BME280_humidity;BME280_pressure;Samples;Min_cycle;Max_cycle;Signal;HPM_P1;HPM_P2
2022/07/31 00:01:53;;;;;;;13.20;12.00;;;;;;;;;;5108142;28;24760;-45
2022/07/31 00:04:19;;;;;;;11.98;11.07;;;;;;;;;;5108360;28;24398;-45
2022/07/31 00:06:44;;;;;;;11.80;10.80;;;;;;;;;;5108379;28;24445;-45
2022/07/31 00:09:10;;;;;;;11.70;10.70;;;;;;;;;;5106245;28;24420;-45
2022/07/31 00:11:35;;;;;;;11.32;10.40;;;;;;;;;;5102572;28;25103;-45
2022/07/31 00:14:00;;;;;;;11.77;10.77;;;;;;;;;;5097028;28;24433;-45
2022/07/31 00:16:25;;;;;;;11.88;10.88;;;;;;;;;;5096697;28;24449;-46
2022/07/31 00:18:51;;;;;;;11.90;11.00;;;;;;;;;;5094116;28;24476;-46
2022/07/31 00:21:17;;;;;;;11.37;10.37;;;;;;;;;;5108119;28;24755;-46
2022/07/31 00:23:42;;;;;;;11.82;10.82;;;;;;;;;;5090752;28;24425;-46
2022/07/31 00:26:07;;;;;;;12.57;11.57;;;;;;;;;;5102422;28;24433;-46
2022/07/31 00:28:33;;;;;;;12.60;11.60;;;;;;;;;;5099598;28;24418;-46
2022/07/31 00:30:58;;;;;;;11.33;10.40;;;;;;;;;;5102513;28;24955;-46
2022/07/31 00:33:23;;;;;;;11.80;10.90;;;;;;;;;;5093462;28;24488;-45
2022/07/31 00:35:48;;;;;;;12.00;11.00;;;;;;;;;;5101076;28;24447;-46
2022/07/31 00:38:14;;;;;;;12.25;11.25;;;;;;;;;;5100798;28;24460;-46
2022/07/31 00:40:46;;;;;;;12.90;11.80;;;;;;;;;;5097819;28;24822;-46
2022/07/31 00:43:12;;;;;;;12.70;11.60;;;;;;;;;;5096461;28;24409;-44
2022/07/31 00:45:37;;;;;;;13.20;12.00;;;;;;;;;;5097012;28;24432;-45
2022/07/31 00:48:02;;;;;;;12.43;11.32;;;;;;;;;;5093874;28;24475;-47
2022/07/31 00:50:27;;;;;;;12.13;11.23;;;;;;;;;;5104077;28;24481;-46
2022/07/31 00:52:53;;;;;;;12.47;11.30;;;;;;;;;;5099721;28;24429;-46
2022/07/31 00:55:18;;;;;;;13.13;12.02;;;;;;;;;;5102991;28;24639;-45
2022/07/31 00:57:43;;;;;;;13.50;12.30;;;;;;;;;;5101761;28;24449;-46
2022/07/31 01:00:12;;;;;;;13.25;12.15;;;;;;;;;;5103378;28;24448;-45
2022/07/31 01:02:37;;;;;;;11.98;11.07;;;;;;;;;;5101592;28;25304;-46
2022/07/31 01:05:02;;;;;;;12.60;11.60;;;;;;;;;;5091100;28;24428;-45
2022/07/31 01:07:28;;;;;;;12.50;11.50;;;;;;;;;;5094742;28;24425;-46
2022/07/31 01:09:54;;;;;;;13.00;11.90;;;;;;;;;;5090583;28;24479;-46
2022/07/31 01:12:28;;;;;;;14.30;13.10;;;;;;;;;;5093522;28;24479;-47
2022/07/31 01:14:56;;;;;;;13.20;12.20;;;;;;;;;;5090577;28;24475;-46
2022/07/31 01:17:22;;;;;;;13.73;12.80;;;;;;;;;;5098660;28;24908;-46
2022/07/31 01:19:49;;;;;;;13.07;12.18;;;;;;;;;;5097973;28;25010;-45
2022/07/31 01:22:15;;;;;;;12.15;11.35;;;;;;;;;;5099449;28;25020;-46
2022/07/31 01:24:55;;;;;;;12.77;11.83;;;;;;;;;;5094564;28;24510;-46
2022/07/31 01:27:28;;;;;;;12.70;11.80;;;;;;;;;;5097646;28;24434;-46
2022/07/31 01:29:55;;;;;;;13.45;12.45;;;;;;;;;;5105109;28;24425;-46
2022/07/31 01:32:40;;;;;;;12.50;11.70;;;;;;;;;;5102095;28;24437;-46
2022/07/31 01:35:19;;;;;;;12.77;11.88;;;;;;;;;;5095464;28;24520;-46
2022/07/31 01:37:46;;;;;;;12.93;12.02;;;;;;;;;;5094327;28;24501;-46
2022/07/31 01:40:17;;;;;;;13.07;12.17;;;;;;;;;;5100282;28;24777;-46
2022/07/31 01:42:46;;;;;;;13.43;12.53;;;;;;;;;;5098410;28;24421;-46
2022/07/31 01:45:13;;;;;;;13.65;12.70;;;;;;;;;;5101044;28;24428;-46
2022/07/31 01:47:38;;;;;;;12.80;11.90;;;;;;;;;;5106627;28;24416;-46
2022/07/31 01:50:04;;;;;;;12.73;11.82;;;;;;;;;;5103990;28;24482;-46
2022/07/31 01:52:30;;;;;;;13.40;12.50;;;;;;;;;;5099286;28;24433;-46
2022/07/31 01:54:57;;;;;;;13.07;12.18;;;;;;;;;;5090244;28;24423;-46
2022/07/31 01:57:23;;;;;;;12.65;11.85;;;;;;;;;;5103977;28;24809;-45
2022/07/31 01:59:49;;;;;;;12.50;11.60;;;;;;;;;;5096822;28;24498;-46
2022/07/31 02:02:15;;;;;;;13.10;12.20;;;;;;;;;;5099552;28;24462;-45
2022/07/31 02:04:40;;;;;;;13.20;12.40;;;;;;;;;;5100748;28;24533;-46
2022/07/31 02:07:07;;;;;;;13.32;12.52;;;;;;;;;;5104248;28;24457;-45
2022/07/31 02:09:32;;;;;;;12.55;11.75;;;;;;;;;;5104199;28;24486;-46
2022/07/31 02:11:58;;;;;;;13.57;12.68;;;;;;;;;;5092906;28;24468;-45
2022/07/31 02:14:23;;;;;;;12.93;12.10;;;;;;;;;;5106124;28;24982;-46
2022/07/31 02:16:49;;;;;;;12.70;11.70;;;;;;;;;;5106785;28;24803;-46
2022/07/31 02:19:14;;;;;;;13.68;12.68;;;;;;;;;;5108765;28;25009;-47
2022/07/31 02:21:40;;;;;;;12.90;12.00;;;;;;;;;;5109431;28;24978;-46
2022/07/31 02:24:06;;;;;;;12.10;11.30;;;;;;;;;;5109434;28;24420;-45
2022/07/31 02:26:32;;;;;;;13.10;12.20;;;;;;;;;;5103992;28;25503;-46
2022/07/31 02:28:58;;;;;;;13.32;12.43;;;;;;;;;;5109183;28;24999;-47
2022/07/31 02:31:24;;;;;;;12.43;11.63;;;;;;;;;;5099208;28;24566;-46
2022/07/31 02:33:49;;;;;;;12.80;11.93;;;;;;;;;;5101566;28;25027;-47
2022/07/31 02:36:16;;;;;;;12.52;11.63;;;;;;;;;;5107803;28;24445;-46
2022/07/31 02:38:42;;;;;;;12.70;11.82;;;;;;;;;;5098037;28;24583;-47
2022/07/31 02:41:08;;;;;;;13.50;12.60;;;;;;;;;;5105878;28;24493;-46
2022/07/31 02:43:34;;;;;;;12.85;12.05;;;;;;;;;;5092199;28;24958;-46
2022/07/31 02:45:59;;;;;;;12.63;11.83;;;;;;;;;;5093147;28;24443;-44
2022/07/31 02:48:25;;;;;;;13.40;12.40;;;;;;;;;;5092967;28;24569;-45
2022/07/31 02:50:50;;;;;;;12.55;11.75;;;;;;;;;;5093611;28;24530;-46
2022/07/31 02:53:15;;;;;;;12.43;11.63;;;;;;;;;;5097873;28;24582;-46
2022/07/31 02:55:42;;;;;;;12.30;11.50;;;;;;;;;;5100120;28;24505;-47
2022/07/31 02:58:07;;;;;;;12.55;11.75;;;;;;;;;;5097390;28;24418;-46
2022/07/31 03:00:32;;;;;;;13.53;12.53;;;;;;;;;;5096631;28;24417;-46
2022/07/31 03:02:58;;;;;;;12.60;11.80;;;;;;;;;;5094007;28;24557;-45
2022/07/31 03:05:23;;;;;;;13.33;12.43;;;;;;;;;;5105054;28;24450;-46
2022/07/31 03:07:48;;;;;;;13.10;12.20;;;;;;;;;;5097487;28;24983;-46
2022/07/31 03:10:13;;;;;;;12.57;11.67;;;;;;;;;;5108251;28;24471;-44
2022/07/31 03:12:39;;;;;;;12.95;12.15;;;;;;;;;;5103294;28;24522;-45
2022/07/31 03:15:08;;;;;;;12.10;11.30;;;;;;;;;;5108574;28;24990;-46
2022/07/31 03:17:33;;;;;;;12.93;12.07;;;;;;;;;;5090199;28;24827;-46
2022/07/31 03:19:58;;;;;;;12.60;11.80;;;;;;;;;;5106621;28;24517;-45
2022/07/31 03:22:24;;;;;;;12.52;11.73;;;;;;;;;;5108747;28;24783;-44
2022/07/31 03:24:51;;;;;;;13.20;12.40;;;;;;;;;;5101117;28;24768;-46
2022/07/31 03:27:16;;;;;;;12.75;11.88;;;;;;;;;;5102556;28;24437;-44
2022/07/31 03:29:41;;;;;;;13.13;12.32;;;;;;;;;;5092865;28;24785;-45
2022/07/31 03:32:06;;;;;;;13.18;12.27;;;;;;;;;;5089626;28;24426;-45
2022/07/31 03:34:31;;;;;;;12.37;11.57;;;;;;;;;;5104461;28;24433;-45
2022/07/31 03:36:57;;;;;;;13.10;12.20;;;;;;;;;;5091190;28;24390;-45
2022/07/31 03:39:23;;;;;;;14.00;13.00;;;;;;;;;;5096298;28;24410;-45
2022/07/31 03:41:49;;;;;;;12.88;11.98;;;;;;;;;;5094475;28;25059;-45
2022/07/31 03:44:14;;;;;;;13.40;12.50;;;;;;;;;;5107668;28;24401;-45
2022/07/31 03:46:40;;;;;;;13.57;12.68;;;;;;;;;;5103737;28;24765;-47
2022/07/31 03:49:06;;;;;;;12.20;11.40;;;;;;;;;;5089256;28;24439;-46
2022/07/31 03:51:31;;;;;;;12.70;11.90;;;;;;;;;;5088102;28;24414;-46
2022/07/31 03:53:56;;;;;;;13.30;12.40;;;;;;;;;;5088344;28;24410;-46
2022/07/31 03:56:22;;;;;;;13.20;12.30;;;;;;;;;;5088803;28;25364;-46
2022/07/31 03:58:47;;;;;;;13.10;12.30;;;;;;;;;;5094250;28;24976;-46
2022/07/31 04:01:14;;;;;;;12.20;11.40;;;;;;;;;;5108604;28;24381;-46
2022/07/31 04:03:39;;;;;;;13.38;12.48;;;;;;;;;;5108439;28;24992;-46
2022/07/31 04:06:04;;;;;;;12.53;11.73;;;;;;;;;;5107627;28;24428;-46
2022/07/31 04:08:29;;;;;;;12.50;11.70;;;;;;;;;;5108488;28;24538;-45
2022/07/31 04:10:54;;;;;;;12.48;11.65;;;;;;;;;;5108039;28;24397;-45
2022/07/31 04:13:19;;;;;;;12.50;11.70;;;;;;;;;;5108472;28;24416;-47
2022/07/31 04:15:45;;;;;;;11.65;10.85;;;;;;;;;;5108220;28;24415;-45
2022/07/31 04:18:10;;;;;;;10.95;10.25;;;;;;;;;;5107789;28;24493;-45
2022/07/31 04:20:35;;;;;;;11.48;10.77;;;;;;;;;;5108217;28;24393;-45
2022/07/31 04:23:02;;;;;;;11.05;10.35;;;;;;;;;;5107443;28;24394;-45
2022/07/31 04:25:27;;;;;;;10.45;9.75;;;;;;;;;;5108153;28;24485;-45
2022/07/31 04:27:52;;;;;;;10.60;9.90;;;;;;;;;;5108014;28;24465;-45
2022/07/31 04:30:18;;;;;;;10.48;9.77;;;;;;;;;;5107018;28;24981;-46
2022/07/31 04:32:43;;;;;;;11.40;10.60;;;;;;;;;;5107372;28;24401;-46
2022/07/31 04:35:08;;;;;;;10.20;9.50;;;;;;;;;;5107541;28;24398;-46
2022/07/31 04:37:33;;;;;;;10.00;9.30;;;;;;;;;;5107909;28;24388;-46
2022/07/31 04:39:59;;;;;;;9.87;9.17;;;;;;;;;;5106885;28;24979;-46
2022/07/31 04:42:24;;;;;;;10.07;9.27;;;;;;;;;;5101858;28;24430;-46
2022/07/31 04:44:49;;;;;;;9.80;9.10;;;;;;;;;;5093083;28;24737;-45
2022/07/31 04:47:14;;;;;;;10.00;9.30;;;;;;;;;;5099155;28;24430;-46
2022/07/31 04:49:39;;;;;;;9.57;8.87;;;;;;;;;;5096616;28;24524;-46
2022/07/31 04:52:05;;;;;;;9.00;8.40;;;;;;;;;;5094381;28;24453;-44
2022/07/31 04:54:30;;;;;;;8.88;8.27;;;;;;;;;;5090455;28;24422;-46
2022/07/31 04:56:56;;;;;;;9.00;8.30;;;;;;;;;;5101274;28;24413;-44
2022/07/31 04:59:21;;;;;;;9.02;8.23;;;;;;;;;;5107669;28;24382;-46
2022/07/31 05:01:47;;;;;;;8.95;8.35;;;;;;;;;;5106895;28;24724;-45
2022/07/31 05:04:12;;;;;;;10.10;9.20;;;;;;;;;;5107320;28;24405;-46
2022/07/31 05:06:47;;;;;;;10.10;9.20;;;;;;;;;;5107171;28;24413;-46
2022/07/31 05:09:14;;;;;;;8.60;8.00;;;;;;;;;;5107170;28;24884;-46
2022/07/31 05:11:39;;;;;;;8.65;8.00;;;;;;;;;;5105704;28;24956;-45
2022/07/31 05:14:06;;;;;;;9.23;8.43;;;;;;;;;;5087294;28;24452;-45
2022/07/31 05:16:32;;;;;;;9.10;8.40;;;;;;;;;;5086492;28;24389;-46
2022/07/31 05:18:57;;;;;;;8.57;7.88;;;;;;;;;;5086854;28;25012;-45
2022/07/31 05:21:23;;;;;;;8.77;8.07;;;;;;;;;;5086931;28;24386;-45
2022/07/31 05:23:49;;;;;;;10.48;9.68;;;;;;;;;;5086323;28;24399;-45
2022/07/31 05:26:15;;;;;;;8.10;7.50;;;;;;;;;;5087177;28;24490;-45
2022/07/31 05:28:40;;;;;;;8.57;7.87;;;;;;;;;;5086654;28;24390;-46
2022/07/31 05:31:06;;;;;;;7.70;7.20;;;;;;;;;;5086970;28;24471;-45
2022/07/31 05:33:32;;;;;;;8.32;7.72;;;;;;;;;;5086470;28;25008;-45
2022/07/31 05:35:58;;;;;;;7.30;6.80;;;;;;;;;;5095404;28;24436;-46
2022/07/31 05:38:23;;;;;;;7.28;6.78;;;;;;;;;;5106790;28;24382;-45
2022/07/31 05:40:48;;;;;;;7.28;6.78;;;;;;;;;;5106679;28;24490;-46
2022/07/31 05:43:13;;;;;;;6.87;6.40;;;;;;;;;;5106848;28;24397;-45
2022/07/31 05:45:39;;;;;;;7.30;6.80;;;;;;;;;;5107135;28;24517;-45
2022/07/31 05:48:04;;;;;;;6.53;6.13;;;;;;;;;;5103315;28;24398;-46
2022/07/31 05:50:29;;;;;;;6.07;5.67;;;;;;;;;;5106118;28;25022;-45
2022/07/31 05:52:55;;;;;;;6.57;6.07;;;;;;;;;;5106964;28;24450;-46
2022/07/31 05:55:20;;;;;;;6.40;5.90;;;;;;;;;;5106971;28;24983;-46
2022/07/31 05:57:45;;;;;;;6.90;6.40;;;;;;;;;;5107293;28;24409;-46
2022/07/31 06:00:10;;;;;;;6.63;6.13;;;;;;;;;;5106631;28;24912;-46
2022/07/31 06:02:36;;;;;;;7.10;6.50;;;;;;;;;;5106128;28;24517;-46
2022/07/31 06:05:01;;;;;;;5.55;5.25;;;;;;;;;;5101341;28;25020;-46
2022/07/31 06:07:26;;;;;;;8.00;7.40;;;;;;;;;;5086115;28;24923;-46
2022/07/31 06:09:51;;;;;;;7.90;7.30;;;;;;;;;;5084171;28;24429;-46
2022/07/31 06:12:16;;;;;;;6.93;6.43;;;;;;;;;;5097431;28;26342;-48
2022/07/31 06:14:41;;;;;;;6.88;6.38;;;;;;;;;;5103475;28;24740;-46
2022/07/31 06:17:07;;;;;;;7.15;6.55;;;;;;;;;;5093455;28;24473;-45
2022/07/31 06:19:32;;;;;;;6.40;5.90;;;;;;;;;;5097191;28;24441;-45
2022/07/31 06:21:58;;;;;;;5.33;4.93;;;;;;;;;;5101059;28;24867;-45
2022/07/31 06:24:24;;;;;;;5.40;5.00;;;;;;;;;;5101847;28;24529;-45
2022/07/31 06:26:49;;;;;;;5.30;4.90;;;;;;;;;;5098295;28;24413;-45
2022/07/31 06:29:15;;;;;;;4.90;4.60;;;;;;;;;;5100947;28;24432;-45
2022/07/31 06:31:40;;;;;;;5.50;5.10;;;;;;;;;;5086997;28;24422;-44
2022/07/31 06:34:05;;;;;;;5.60;5.15;;;;;;;;;;5101819;28;24429;-45
2022/07/31 06:36:30;;;;;;;5.10;4.70;;;;;;;;;;5093005;28;24514;-46
2022/07/31 06:38:55;;;;;;;5.23;4.80;;;;;;;;;;5083762;28;25019;-46
2022/07/31 06:44:04;;;;;;;5.20;4.80;;;;;;;;;;5088933;28;24468;-44
2022/07/31 06:46:29;;;;;;;5.88;5.38;;;;;;;;;;5090419;28;25008;-47
2022/07/31 06:48:55;;;;;;;5.20;4.83;;;;;;;;;;5103415;28;24450;-45
2022/07/31 06:51:20;;;;;;;5.47;4.97;;;;;;;;;;5097835;28;24541;-45
2022/07/31 06:53:45;;;;;;;6.43;5.22;;;;;;;;;;5088164;28;24542;-46
2022/07/31 06:56:10;;;;;;;4.70;4.40;;;;;;;;;;5100257;28;24422;-45
2022/07/31 06:58:36;;;;;;;5.80;5.30;;;;;;;;;;5098946;28;24421;-45
2022/07/31 07:01:01;;;;;;;5.70;5.20;;;;;;;;;;5096094;28;24436;-45
2022/07/31 07:03:26;;;;;;;5.33;4.93;;;;;;;;;;5090228;28;24800;-45
2022/07/31 07:05:51;;;;;;;5.13;4.82;;;;;;;;;;5104843;28;24410;-44
2022/07/31 07:08:16;;;;;;;5.20;4.73;;;;;;;;;;5101212;28;24441;-44
2022/07/31 07:10:41;;;;;;;4.77;4.47;;;;;;;;;;5085791;28;24452;-45
2022/07/31 07:13:07;;;;;;;5.50;5.10;;;;;;;;;;5086646;28;24557;-45
2022/07/31 07:15:32;;;;;;;6.23;5.73;;;;;;;;;;5086548;28;24486;-46
2022/07/31 07:17:57;;;;;;;5.70;5.30;;;;;;;;;;5085676;28;25436;-46
2022/07/31 07:20:22;;;;;;;5.13;4.73;;;;;;;;;;5086115;28;24405;-46
2022/07/31 07:22:47;;;;;;;5.40;5.00;;;;;;;;;;5085691;28;24940;-46
2022/07/31 07:25:12;;;;;;;5.93;5.43;;;;;;;;;;5085580;28;24489;-47
2022/07/31 07:27:38;;;;;;;5.70;5.30;;;;;;;;;;5085194;28;25122;-48
2022/07/31 07:30:03;;;;;;;5.20;4.80;;;;;;;;;;5085646;28;24401;-46
2022/07/31 07:32:28;;;;;;;5.27;4.87;;;;;;;;;;5087127;27;24883;-46
2022/07/31 07:34:53;;;;;;;5.38;4.88;;;;;;;;;;5089244;28;24803;-46
2022/07/31 07:37:19;;;;;;;5.65;4.90;;;;;;;;;;5089555;28;24519;-45
2022/07/31 07:39:44;;;;;;;5.95;5.45;;;;;;;;;;5086943;28;24979;-46
2022/07/31 07:42:09;;;;;;;6.10;5.60;;;;;;;;;;5103235;28;24413;-46
2022/07/31 07:44:34;;;;;;;5.80;5.40;;;;;;;;;;5092179;28;24472;-45
2022/07/31 07:46:59;;;;;;;5.30;4.80;;;;;;;;;;5100967;28;25174;-45
2022/07/31 07:49:24;;;;;;;5.45;5.05;;;;;;;;;;5099088;28;24460;-45
2022/07/31 07:51:49;;;;;;;5.72;5.30;;;;;;;;;;5099411;28;25120;-45
2022/07/31 07:54:15;;;;;;;5.70;5.10;;;;;;;;;;5105450;28;24424;-45
2022/07/31 07:56:40;;;;;;;6.20;5.70;;;;;;;;;;5104082;28;25010;-45
2022/07/31 07:59:05;;;;;;;6.63;5.93;;;;;;;;;;5094320;28;24587;-47
2022/07/31 08:01:30;;;;;;;6.03;5.63;;;;;;;;;;5084682;28;24424;-46
2022/07/31 08:03:55;;;;;;;6.45;5.95;;;;;;;;;;5094138;28;24658;-46
2022/07/31 08:06:22;;;;;;;6.37;5.97;;;;;;;;;;5093541;28;25114;-45
2022/07/31 08:08:47;;;;;;;6.30;5.80;;;;;;;;;;5101647;28;24444;-46
2022/07/31 08:11:12;;;;;;;6.00;5.60;;;;;;;;;;5101508;28;24959;-46
2022/07/31 08:13:37;;;;;;;6.00;5.50;;;;;;;;;;5089080;28;24524;-47
2022/07/31 08:16:02;;;;;;;6.03;5.63;;;;;;;;;;5098974;28;24974;-46
2022/07/31 08:18:28;;;;;;;5.40;5.00;;;;;;;;;;5107953;27;25207;-46
2022/07/31 08:20:53;;;;;;;6.20;5.70;;;;;;;;;;5106762;28;24825;-46
2022/07/31 08:23:19;;;;;;;5.87;5.47;;;;;;;;;;5107707;28;24389;-46
2022/07/31 08:25:44;;;;;;;5.70;5.20;;;;;;;;;;5106850;28;24469;-46
2022/07/31 08:28:09;;;;;;;6.00;5.50;;;;;;;;;;5107286;28;24402;-46
2022/07/31 08:30:34;;;;;;;5.80;5.30;;;;;;;;;;5107936;28;24996;-46
2022/07/31 08:32:59;;;;;;;6.47;5.87;;;;;;;;;;5107538;28;24417;-46
2022/07/31 08:35:25;;;;;;;6.43;6.03;;;;;;;;;;5107756;28;24386;-45
2022/07/31 08:37:50;;;;;;;6.60;6.20;;;;;;;;;;5107617;28;24463;-46
2022/07/31 08:40:16;;;;;;;6.70;6.13;;;;;;;;;;5107283;28;24911;-44
2022/07/31 08:42:41;;;;;;;5.95;5.45;;;;;;;;;;5107594;28;24436;-45
2022/07/31 08:45:06;;;;;;;6.35;5.80;;;;;;;;;;5101705;28;24428;-44
2022/07/31 08:47:33;;;;;;;6.20;5.70;;;;;;;;;;5087693;28;24820;-45
2022/07/31 08:49:59;;;;;;;6.50;5.90;;;;;;;;;;5096601;28;24440;-45
2022/07/31 08:52:25;;;;;;;6.40;5.90;;;;;;;;;;5102216;28;24440;-46
2022/07/31 08:54:51;;;;;;;6.47;5.97;;;;;;;;;;5107263;28;25061;-46
2022/07/31 08:57:17;;;;;;;6.13;5.72;;;;;;;;;;5107327;28;24422;-46
2022/07/31 08:59:42;;;;;;;5.90;5.40;;;;;;;;;;5107005;28;24408;-45
2022/07/31 09:02:07;;;;;;;6.37;5.87;;;;;;;;;;5107293;28;24389;-46
2022/07/31 09:04:33;;;;;;;6.70;6.00;;;;;;;;;;5106787;28;24401;-46
2022/07/31 09:07:01;;;;;;;5.80;5.40;;;;;;;;;;5106948;28;24381;-46
2022/07/31 09:09:27;;;;;;;5.60;5.20;;;;;;;;;;5107226;28;24410;-46
2022/07/31 09:11:55;;;;;;;5.87;5.37;;;;;;;;;;5106238;28;24994;-46
2022/07/31 09:14:27;;;;;;;6.00;5.50;;;;;;;;;;5106741;28;24571;-45
2022/07/31 09:16:53;;;;;;;5.90;5.50;;;;;;;;;;5106360;28;24406;-45
2022/07/31 09:19:19;;;;;;;5.60;5.10;;;;;;;;;;5105480;28;24736;-45
2022/07/31 09:21:44;;;;;;;6.60;6.10;;;;;;;;;;5106396;28;24392;-45
2022/07/31 09:24:10;;;;;;;5.75;5.35;;;;;;;;;;5100145;28;24800;-44
2022/07/31 09:26:36;;;;;;;6.17;5.77;;;;;;;;;;5104686;28;24424;-45
2022/07/31 09:29:07;;;;;;;6.50;6.10;;;;;;;;;;5106910;28;24454;-44
2022/07/31 09:31:32;;;;;;;6.65;6.15;;;;;;;;;;5106679;28;24386;-45
2022/07/31 09:33:58;;;;;;;6.30;5.80;;;;;;;;;;5106577;28;24505;-45
2022/07/31 09:36:23;;;;;;;6.00;5.50;;;;;;;;;;5106850;28;24454;-45
2022/07/31 09:38:49;;;;;;;6.40;6.00;;;;;;;;;;5107053;28;24470;-44
2022/07/31 09:41:15;;;;;;;6.20;5.70;;;;;;;;;;5106460;28;24374;-46
2022/07/31 09:43:41;;;;;;;5.90;5.45;;;;;;;;;;5104191;28;24392;-45
2022/07/31 09:46:07;;;;;;;5.90;5.50;;;;;;;;;;5107115;28;24394;-45
2022/07/31 09:48:33;;;;;;;5.88;5.40;;;;;;;;;;5106490;28;24390;-44
2022/07/31 09:50:59;;;;;;;5.60;5.30;;;;;;;;;;5106277;28;24520;-45
2022/07/31 09:53:24;;;;;;;6.10;5.60;;;;;;;;;;5106649;28;24429;-45
2022/07/31 09:55:50;;;;;;;5.85;5.40;;;;;;;;;;5106450;28;24468;-46
2022/07/31 09:58:16;;;;;;;6.00;5.60;;;;;;;;;;5099381;28;24521;-45
2022/07/31 10:00:41;;;;;;;6.07;5.67;;;;;;;;;;5104614;28;24493;-45
2022/07/31 10:03:06;;;;;;;6.70;6.20;;;;;;;;;;5106287;28;24536;-45
2022/07/31 10:05:32;;;;;;;6.33;5.83;;;;;;;;;;5106280;28;25030;-45
2022/07/31 10:07:59;;;;;;;5.88;5.38;;;;;;;;;;5106395;28;24450;-45
2022/07/31 10:10:24;;;;;;;6.60;6.10;;;;;;;;;;5106029;28;24400;-45
2022/07/31 10:12:52;;;;;;;6.00;5.37;;;;;;;;;;5105817;28;24422;-46
2022/07/31 10:15:18;;;;;;;6.28;5.78;;;;;;;;;;5102916;28;24378;-45
2022/07/31 10:17:45;;;;;;;5.40;5.10;;;;;;;;;;5105821;28;24794;-46
2022/07/31 10:20:13;;;;;;;6.00;5.60;;;;;;;;;;5106310;28;24444;-46
2022/07/31 10:22:42;;;;;;;4.97;4.57;;;;;;;;;;5106185;28;24782;-46
2022/07/31 10:25:10;;;;;;;6.00;5.50;;;;;;;;;;5106102;28;24416;-46
2022/07/31 10:27:36;;;;;;;6.15;5.75;;;;;;;;;;5105673;28;25014;-46
2022/07/31 10:30:02;;;;;;;6.20;5.70;;;;;;;;;;5108494;28;24417;-45
2022/07/31 10:32:27;;;;;;;5.75;5.30;;;;;;;;;;5109415;28;24433;-45
2022/07/31 10:34:52;;;;;;;6.10;5.70;;;;;;;;;;5100341;28;24454;-46
2022/07/31 10:37:20;;;;;;;6.20;5.80;;;;;;;;;;5109446;28;24404;-45
2022/07/31 10:39:55;;;;;;;5.95;5.45;;;;;;;;;;5109716;28;24388;-46
2022/07/31 10:42:42;;;;;;;5.78;5.38;;;;;;;;;;5109271;28;25002;-46
2022/07/31 10:45:08;;;;;;;6.18;5.78;;;;;;;;;;5110350;28;24410;-46
2022/07/31 10:47:34;;;;;;;5.50;5.10;;;;;;;;;;5109375;28;24401;-46
2022/07/31 10:49:59;;;;;;;6.90;6.40;;;;;;;;;;5109251;28;24430;-46
2022/07/31 10:52:27;;;;;;;6.50;6.00;;;;;;;;;;5109399;28;24477;-45
2022/07/31 10:54:56;;;;;;;5.50;5.20;;;;;;;;;;5108800;28;24401;-46
2022/07/31 10:57:22;;;;;;;5.60;5.20;;;;;;;;;;5109559;28;24408;-45
2022/07/31 10:59:47;;;;;;;6.63;6.10;;;;;;;;;;5109518;28;24987;-46
2022/07/31 11:02:13;;;;;;;6.30;5.80;;;;;;;;;;5108935;28;24402;-46
2022/07/31 11:04:38;;;;;;;6.13;5.72;;;;;;;;;;5109223;28;24440;-46
2022/07/31 11:07:13;;;;;;;6.80;6.20;;;;;;;;;;5109099;28;24385;-46
2022/07/31 11:09:38;;;;;;;7.10;6.50;;;;;;;;;;5109028;28;24404;-46
2022/07/31 11:12:03;;;;;;;6.80;6.20;;;;;;;;;;5105566;27;24417;-46
2022/07/31 11:14:33;;;;;;;6.33;5.83;;;;;;;;;;5104399;28;25035;-46
2022/07/31 11:16:58;;;;;;;6.85;6.28;;;;;;;;;;5106405;28;24386;-46
2022/07/31 11:19:24;;;;;;;6.40;6.00;;;;;;;;;;5108902;28;24451;-46
2022/07/31 11:21:49;;;;;;;6.20;5.80;;;;;;;;;;5103916;27;24423;-46
2022/07/31 11:24:21;;;;;;;6.40;6.00;;;;;;;;;;5104792;28;24463;-46
2022/07/31 11:26:54;;;;;;;6.60;6.20;;;;;;;;;;5089411;28;24437;-46
2022/07/31 11:29:26;;;;;;;6.30;5.80;;;;;;;;;;5085546;28;24437;-46
2022/07/31 11:31:51;;;;;;;5.93;5.53;;;;;;;;;;5093207;28;24425;-46
2022/07/31 11:34:16;;;;;;;5.72;5.32;;;;;;;;;;5089572;28;24793;-46
2022/07/31 11:36:42;;;;;;;5.72;5.25;;;;;;;;;;5093765;28;24490;-46
2022/07/31 11:39:10;;;;;;;6.25;5.75;;;;;;;;;;5096949;28;24478;-46
2022/07/31 11:41:36;;;;;;;6.50;6.00;;;;;;;;;;5104934;28;24429;-45
2022/07/31 11:44:02;;;;;;;6.40;5.90;;;;;;;;;;5093882;28;24425;-46
2022/07/31 11:46:29;;;;;;;6.22;5.80;;;;;;;;;;5084700;28;24495;-49
2022/07/31 11:48:54;;;;;;;6.68;6.07;;;;;;;;;;5091582;28;24461;-46
2022/07/31 11:51:20;;;;;;;7.03;6.53;;;;;;;;;;5086037;28;24868;-46
2022/07/31 11:53:45;;;;;;;7.20;6.50;;;;;;;;;;5093048;28;24836;-45
2022/07/31 11:56:11;;;;;;;6.67;6.10;;;;;;;;;;5097056;28;24421;-45
2022/07/31 11:58:37;;;;;;;6.50;6.10;;;;;;;;;;5085890;28;24773;-45
2022/07/31 12:01:03;;;;;;;6.65;5.55;;;;;;;;;;5092327;28;25212;-44
2022/07/31 12:03:33;;;;;;;5.75;5.35;;;;;;;;;;5085035;28;24497;-46
2022/07/31 12:05:58;;;;;;;6.32;5.82;;;;;;;;;;5101673;28;24445;-46
2022/07/31 12:08:25;;;;;;;6.40;5.80;;;;;;;;;;5096795;28;24473;-47
2022/07/31 12:10:51;;;;;;;6.22;5.75;;;;;;;;;;5085543;28;24391;-46
2022/07/31 12:13:17;;;;;;;5.78;5.38;;;;;;;;;;5094839;28;24429;-46
2022/07/31 12:15:57;;;;;;;5.60;5.28;;;;;;;;;;5104989;28;24390;-46
2022/07/31 12:18:23;;;;;;;5.53;5.13;;;;;;;;;;5102677;28;24982;-46
2022/07/31 12:20:57;;;;;;;5.80;5.30;;;;;;;;;;5099392;28;24414;-46
2022/07/31 12:23:23;;;;;;;5.32;4.93;;;;;;;;;;5105428;28;24645;-46
2022/07/31 12:25:48;;;;;;;5.40;5.00;;;;;;;;;;5093722;28;24445;-45
2022/07/31 12:28:14;;;;;;;5.23;4.83;;;;;;;;;;5100076;28;24978;-47
2022/07/31 12:30:40;;;;;;;4.90;4.50;;;;;;;;;;5105365;28;24401;-46
2022/07/31 12:33:06;;;;;;;4.60;4.30;;;;;;;;;;5099274;28;24425;-46
2022/07/31 12:35:49;;;;;;;4.90;4.60;;;;;;;;;;5105258;28;24390;-46
2022/07/31 12:38:26;;;;;;;5.13;4.72;;;;;;;;;;5099751;28;24442;-46
2022/07/31 12:41:03;;;;;;;5.05;4.55;;;;;;;;;;5105267;28;24943;-46
2022/07/31 12:43:29;;;;;;;5.30;4.80;;;;;;;;;;5098597;28;24532;-46
2022/07/31 12:45:58;;;;;;;4.70;4.40;;;;;;;;;;5103040;28;24578;-46
2022/07/31 12:48:24;;;;;;;4.90;4.60;;;;;;;;;;5089087;28;24479;-46
2022/07/31 12:50:49;;;;;;;5.80;5.40;;;;;;;;;;5091312;28;25051;-46
2022/07/31 12:53:14;;;;;;;5.10;4.70;;;;;;;;;;5086580;28;24425;-46
2022/07/31 12:55:39;;;;;;;5.53;5.13;;;;;;;;;;5092232;28;24978;-45
2022/07/31 12:58:04;;;;;;;4.80;4.40;;;;;;;;;;5101415;28;24707;-45
2022/07/31 13:00:29;;;;;;;5.95;5.20;;;;;;;;;;5088932;28;24533;-45
2022/07/31 13:02:55;;;;;;;4.90;4.50;;;;;;;;;;5107397;28;24386;-44
2022/07/31 13:05:22;;;;;;;5.28;4.20;;;;;;;;;;5098285;28;24863;-45
2022/07/31 13:07:47;;;;;;;4.20;3.80;;;;;;;;;;5087013;28;24393;-45
2022/07/31 13:10:12;;;;;;;4.63;4.30;;;;;;;;;;5088130;28;24415;-45
2022/07/31 13:12:37;;;;;;;4.53;3.90;;;;;;;;;;5086884;28;24422;-45
2022/07/31 13:15:03;;;;;;;4.50;4.10;;;;;;;;;;5086962;28;24436;-45
2022/07/31 13:17:28;;;;;;;4.90;4.50;;;;;;;;;;5087444;28;24936;-45
2022/07/31 13:19:53;;;;;;;4.55;4.25;;;;;;;;;;5086707;28;24756;-45
2022/07/31 13:22:18;;;;;;;5.10;4.70;;;;;;;;;;5087008;28;24441;-45
2022/07/31 13:24:44;;;;;;;4.38;4.07;;;;;;;;;;5086720;28;24452;-45
2022/07/31 13:27:09;;;;;;;4.10;3.90;;;;;;;;;;5087226;28;24397;-45
2022/07/31 13:29:34;;;;;;;4.50;4.10;;;;;;;;;;5087179;28;24386;-45
2022/07/31 13:31:59;;;;;;;4.40;4.10;;;;;;;;;;5086880;28;24981;-45
2022/07/31 13:34:24;;;;;;;4.90;4.50;;;;;;;;;;5086718;28;24413;-44
2022/07/31 13:36:50;;;;;;;5.50;4.97;;;;;;;;;;5086815;28;24908;-45
2022/07/31 13:39:15;;;;;;;4.60;4.30;;;;;;;;;;5086577;28;24390;-45
2022/07/31 13:41:40;;;;;;;4.90;4.50;;;;;;;;;;5087016;28;24421;-45
2022/07/31 13:44:06;;;;;;;4.80;4.40;;;;;;;;;;5087014;28;24796;-45
2022/07/31 13:46:31;;;;;;;4.20;3.90;;;;;;;;;;5096523;28;24437;-45
2022/07/31 13:48:58;;;;;;;4.07;3.20;;;;;;;;;;5105210;28;24483;-44
2022/07/31 13:51:23;;;;;;;3.90;3.70;;;;;;;;;;5098277;28;24409;-45
2022/07/31 13:53:48;;;;;;;3.70;3.50;;;;;;;;;;5086634;28;24545;-45
2022/07/31 13:56:14;;;;;;;4.00;3.70;;;;;;;;;;5097009;28;24437;-45
2022/07/31 13:58:39;;;;;;;4.10;3.80;;;;;;;;;;5106828;28;24394;-44
2022/07/31 14:01:05;;;;;;;3.80;3.50;;;;;;;;;;5106554;28;24412;-45
2022/07/31 14:03:30;;;;;;;4.10;3.70;;;;;;;;;;5107689;28;24390;-46
2022/07/31 14:05:55;;;;;;;4.50;4.10;;;;;;;;;;5110803;28;24988;-47
2022/07/31 14:08:20;;;;;;;4.10;3.70;;;;;;;;;;5100895;28;24952;-46
2022/07/31 14:10:46;;;;;;;3.80;3.60;;;;;;;;;;5090514;28;24460;-45
2022/07/31 14:13:11;;;;;;;4.00;3.70;;;;;;;;;;5090502;28;24418;-45
2022/07/31 14:15:37;;;;;;;4.03;3.60;;;;;;;;;;5090222;28;24390;-46
2022/07/31 14:18:02;;;;;;;6.10;3.60;;;;;;;;;;5090899;28;24924;-46
2022/07/31 14:20:28;;;;;;;3.30;3.10;;;;;;;;;;5090378;28;24460;-46
2022/07/31 14:22:53;;;;;;;3.47;3.28;;;;;;;;;;5090162;28;24469;-45
2022/07/31 14:25:18;;;;;;;3.97;3.67;;;;;;;;;;5090593;28;25358;-44
2022/07/31 14:27:44;;;;;;;3.70;3.40;;;;;;;;;;5089808;28;24920;-45
2022/07/31 14:30:10;;;;;;;3.50;3.30;;;;;;;;;;5090338;28;24979;-45
2022/07/31 14:32:35;;;;;;;3.60;3.40;;;;;;;;;;5090056;28;24445;-45